METAR Data
IDs: Format: Raw Decoded Include TAF

Data at: 2057 UTC 18 Sep 2018

KAIB 182055Z AUTO 21015G21KT 10SM CLR 31/M02 A3010 RMK AO2
KAIB 182035Z AUTO 22019G25KT 7SM CLR 31/M02 A3011 RMK AO2
KAIB 182015Z AUTO 23019G28KT 5SM HZ CLR 31/M02 A3011 RMK AO2
KAIB 181955Z AUTO 24016G24KT 10SM CLR 31/M02 A3012 RMK AO2
KAIB 181935Z AUTO 24020G26KT 10SM CLR 31/M01 A3012 RMK AO2
KAIB 181915Z AUTO 24016G25KT 10SM CLR 31/M01 A3013 RMK AO2
KAIB 181855Z AUTO 22016G24KT 10SM CLR 30/M01 A3013 RMK AO2
KAIB 181835Z AUTO 22012KT 10SM CLR 30/00 A3013 RMK AO2
KAIB 181815Z AUTO 22015G21KT 10SM CLR 30/00 A3014 RMK AO2
KAIB 181755Z AUTO 25006KT 10SM CLR 29/01 A3015 RMK AO2
KAIB 181735Z AUTO 22014G18KT 10SM CLR 29/02 A3016 RMK AO2
KAIB 181715Z AUTO 26005KT 10SM CLR 27/03 A3016 RMK AO2
KAIB 181655Z AUTO 32003KT 10SM CLR 26/04 A3017 RMK AO2
KAIB 181635Z AUTO 00000KT 10SM CLR 25/03 A3017 RMK AO2
KAIB 181615Z AUTO 00000KT 10SM CLR 24/03 A3018 RMK AO2
KAIB 181555Z AUTO 00000KT 10SM CLR 23/03 A3018 RMK AO2
KAIB 181535Z AUTO 00000KT 10SM CLR 22/03 A3018 RMK AO2
KAIB 181455Z AUTO 34003KT 10SM CLR 18/02 A3018 RMK AO2
KAIB 181435Z AUTO 01004KT 10SM CLR 17/02 A3018 RMK AO2
KAIB 181415Z AUTO 01003KT 10SM CLR 16/02 A3018 RMK AO2
KAIB 181355Z AUTO 04005KT 10SM CLR 15/02 A3017 RMK AO2
KAIB 181335Z AUTO 12003KT 10SM CLR 15/02 A3017 RMK AO2
KAIB 181315Z AUTO 13004KT 10SM CLR 15/02 A3016 RMK AO2
KAIB 181255Z AUTO 13008KT 10SM CLR 15/02 A3016 RMK AO2
KAIB 181235Z AUTO 12009KT 10SM CLR 15/02 A3015 RMK AO2
KAIB 181215Z AUTO 13005KT 10SM CLR 15/02 A3016 RMK AO2
KAIB 181155Z AUTO 12007KT 10SM CLR 16/02 A3015 RMK AO2
KAIB 181135Z AUTO 11008KT 10SM CLR 16/02 A3015 RMK AO2
KAIB 181115Z AUTO 10008KT 10SM CLR 16/02 A3015 RMK AO2
KAIB 181055Z AUTO 10009KT 10SM CLR 16/02 A3015 RMK AO2
KAIB 181035Z AUTO 10008KT 10SM CLR 16/02 A3015 RMK AO2
KAIB 181015Z AUTO 10008KT 10SM CLR 16/01 A3015 RMK AO2
KAIB 180955Z AUTO 11010KT 10SM CLR 17/01 A3015 RMK AO2
KAIB 180935Z AUTO 11009KT 10SM CLR 17/01 A3015 RMK AO2
KAIB 180915Z AUTO 10008KT 10SM CLR 17/01 A3015 RMK AO2
KAIB 180855Z AUTO 11008KT 10SM CLR 18/01 A3015 RMK AO2
KAIB 180835Z AUTO 10008KT 10SM CLR 18/01 A3015 RMK AO2
KAIB 180815Z AUTO 09008KT 10SM CLR 18/01 A3015 RMK AO2
KAIB 180755Z AUTO 09008KT 10SM CLR 18/01 A3015 RMK AO2
KAIB 180735Z AUTO 09008KT 10SM CLR 19/01 A3015 RMK AO2
KAIB 180715Z AUTO 09008KT 10SM CLR 19/01 A3015 RMK AO2
KAIB 180655Z AUTO 08008KT 10SM CLR 19/01 A3015 RMK AO2
KAIB 180635Z AUTO 09009KT 10SM CLR 19/01 A3015 RMK AO2
KAIB 180615Z AUTO 09010KT 10SM CLR 20/01 A3014 RMK AO2
KAIB 180555Z AUTO 10010KT 10SM CLR 20/01 A3014 RMK AO2
KAIB 180535Z AUTO 10009KT 10SM CLR 20/01 A3014 RMK AO2
KAIB 180515Z AUTO 10009KT 10SM CLR 20/01 A3014 RMK AO2
KAIB 180455Z AUTO 10008KT 10SM CLR 21/01 A3014 RMK AO2
KAIB 180435Z AUTO 09009KT 10SM CLR 21/01 A3014 RMK AO2
KAIB 180415Z AUTO 09009KT 10SM CLR 22/01 A3013 RMK AO2
KAIB 180355Z AUTO 12006KT 10SM CLR 22/01 A3013 RMK AO2
KAIB 180335Z AUTO 11003KT 10SM CLR 23/01 A3013 RMK AO2
KAIB 180315Z AUTO 18006KT 10SM CLR 25/01 A3013 RMK AO2
KAIB 180255Z AUTO 18006KT 10SM CLR 25/01 A3012 RMK AO2
KAIB 180235Z AUTO 19006KT 10SM CLR 25/01 A3011 RMK AO2
KAIB 180215Z AUTO 19008KT 10SM CLR 26/01 A3011 RMK AO2
KAIB 180155Z AUTO 20011KT 10SM CLR 27/01 A3011 RMK AO2
KAIB 180135Z AUTO 20009KT 10SM CLR 27/01 A3011 RMK AO2
KAIB 180115Z AUTO 20010KT 10SM CLR 27/00 A3011 RMK AO2
KAIB 180055Z AUTO 21009G15KT 10SM CLR 28/00 A3011 RMK AO2
KAIB 180035Z AUTO 20014G17KT 10SM CLR 29/00 A3011 RMK AO2
KAIB 180015Z AUTO 22014KT 10SM CLR 30/00 A3010 RMK AO2
KAIB 172355Z AUTO 22010G17KT 10SM CLR 30/00 A3010 RMK AO2
KAIB 172335Z AUTO 23012G16KT 10SM CLR 31/00 A3010 RMK AO2
KAIB 172315Z AUTO 22011G20KT 10SM CLR 31/00 A3011 RMK AO2
KAIB 172255Z AUTO 19013G19KT 10SM CLR 31/00 A3011 RMK AO2
KAIB 172235Z AUTO 22013G19KT 10SM CLR 31/00 A3011 RMK AO2
KAIB 172215Z AUTO 23011G19KT 10SM CLR 31/00 A3011 RMK AO2
KAIB 172155Z AUTO 21008G22KT 10SM CLR 31/00 A3012 RMK AO2
KAIB 172135Z AUTO 18010G18KT 10SM CLR 32/00 A3012 RMK AO2
KAIB 172115Z AUTO 22015G21KT 10SM CLR 31/00 A3013 RMK AO2
KAIB 172055Z AUTO 23010G23KT 10SM CLR 31/00 A3013 RMK AO2
KAIB 172035Z AUTO 23012G22KT 7SM SCT110 32/00 A3014 RMK AO2
KAIB 172015Z AUTO 26012G20KT 7SM BKN110 31/00 A3015 RMK AO2
KAIB 171955Z AUTO 20012G17KT 10SM SCT110 31/00 A3016 RMK AO2
KAIB 171935Z AUTO 26010G17KT 183V283 10SM SCT110 31/00 A3017 RMK AO2
KAIB 171915Z AUTO 19005G17KT 10SM SCT100 31/00 A3017 RMK AO2
KAIB 171855Z AUTO 22008G14KT 10SM SCT100 31/00 A3017 RMK AO2
KAIB 171835Z AUTO 00000KT 10SM CLR 29/01 A3018 RMK AO2
KAIB 171815Z AUTO 36004KT 10SM CLR 28/01 A3019 RMK AO2
KAIB 171655Z AUTO 00000KT 10SM CLR 25/00 A3022 RMK AO2
KAIB 171615Z AUTO 00000KT 10SM CLR 23/00 A3023 RMK AO2
KAIB 171555Z AUTO 00000KT 10SM SCT110 22/00 A3023 RMK AO2
KAIB 171535Z AUTO 00000KT 10SM SCT110 21/00 A3023 RMK AO2
KAIB 171455Z AUTO 12003KT 7SM 19/00 A3023 RMK AO2 PWINO
KAIB 171435Z AUTO 17/00 RMK AO2 TSNO PWINO
KAIB 171415Z AUTO 11005KT 10SM CLR 17/00 RMK AO2
KAIB 171355Z AUTO 10006KT 10SM CLR 16/00 RMK AO2
KAIB 171335Z AUTO 10005KT 7SM CLR 14/00 RMK AO2
KAIB 171315Z AUTO 00000KT 10SM CLR 13/00 RMK AO2
KAIB 171255Z AUTO 11005KT 10SM CLR 13/00 RMK AO2
KAIB 171235Z AUTO 12003KT 10SM CLR 13/00 RMK AO2
KAIB 171215Z AUTO 11006KT 10SM CLR 13/00 RMK AO2
KAIB 171155Z AUTO 10003KT 10SM CLR 15/00 RMK AO2
KAIB 171135Z AUTO 11008KT 10SM CLR 15/00 RMK AO2
KAIB 171115Z AUTO 11007KT 10SM CLR 15/00 RMK AO2
KAIB 171055Z AUTO 09003KT 10SM CLR 15/00 RMK AO2
KAIB 171035Z AUTO 12004KT 10SM CLR 15/00 RMK AO2
KAIB 171015Z AUTO 11009KT 10SM CLR 16/00 RMK AO2
KAIB 170955Z AUTO 11010KT 10SM CLR 16/00 RMK AO2
KAIB 170935Z AUTO 11010KT 10SM CLR 16/00 RMK AO2
KAIB 170915Z AUTO 11009KT 10SM CLR 16/00 RMK AO2